createdAt,value
2022-09-15T00:08:20.642Z,99632.16
2022-09-15T00:23:22.503Z,99618.75
2022-09-15T00:38:24.294Z,99614.47
2022-09-15T00:53:27.326Z,99622.63
2022-09-15T01:08:37.207Z,99619.22
2022-09-15T01:24:06.406Z,99609.50
2022-09-15T01:39:15.507Z,99593.34
2022-09-15T01:54:22.402Z,99589.09
2022-09-15T02:09:38.818Z,99569.19
2022-09-15T02:24:49.602Z,99549.53
2022-09-15T02:40:00.496Z,99554.47
2022-09-15T02:55:02.539Z,99555.03
2022-09-15T03:10:06.793Z,99554.09
2022-09-15T03:25:09.861Z,99549.19
2022-09-15T03:40:12.152Z,99550.81
2022-09-15T03:55:14.172Z,99542.03
2022-09-15T04:10:16.738Z,99542.81
2022-09-15T04:25:18.581Z,99552.56
2022-09-15T04:40:20.557Z,99541.69
2022-09-15T04:55:22.674Z,99537.22
2022-09-15T05:10:24.530Z,99532.78
2022-09-15T05:25:26.586Z,99543.66
2022-09-15T05:40:28.436Z,99549.75
2022-09-15T05:55:30.954Z,99532.56
2022-09-15T06:10:32.989Z,99522.56
2022-09-15T06:25:35.088Z,99512.59
2022-09-15T06:40:37.362Z,99510.75
2022-09-15T06:55:39.292Z,99498.88
2022-09-15T07:10:45.029Z,99513.09
2022-09-15T07:25:47.169Z,99523.31
2022-09-15T07:40:49.605Z,99516.72
2022-09-15T07:55:54.880Z,99508.69
2022-09-15T08:10:56.923Z,99510.78
2022-09-15T08:25:58.937Z,99487.25
2022-09-15T08:41:09.668Z,99466.94
2022-09-15T08:56:17.411Z,99452.19
2022-09-15T09:11:44.054Z,99445.19
2022-09-15T09:26:54.421Z,99427.13
2022-09-15T09:41:57.061Z,99403.78
2022-09-15T09:57:14.347Z,99389.00
2022-09-15T10:12:24.426Z,99368.22
2022-09-15T10:27:35.104Z,99357.41
2022-09-15T10:42:53.087Z,99353.41
2022-09-15T10:58:05.257Z,99302.94
2022-09-15T11:13:26.281Z,99282.38
2022-09-15T11:28:40.681Z,99265.88
2022-09-15T11:44:16.839Z,99290.41
2022-09-15T12:15:29.571Z,99253.22
2022-09-15T12:30:39.168Z,99237.13
2022-09-15T12:45:43.842Z,99229.28
2022-09-15T13:01:13.850Z,99220.03
2022-09-15T13:16:14.974Z,99208.41
2022-09-15T13:31:30.992Z,99193.09
2022-09-15T13:47:06.991Z,99177.38
2022-09-15T14:02:09.645Z,99145.31
2022-09-15T14:17:27.472Z,99136.19
2022-09-15T14:32:32.398Z,99149.09
2022-09-15T14:47:36.850Z,99121.28
2022-09-15T15:03:16.172Z,99132.53
2022-09-15T15:18:37.809Z,99125.19
2022-09-15T15:33:47.493Z,99135.34
2022-09-15T15:48:50.516Z,99142.44
2022-09-15T16:03:52.775Z,99143.69
2022-09-15T16:18:54.739Z,99148.44
2022-09-15T16:33:56.773Z,99162.44
2022-09-15T16:48:58.770Z,99163.19
2022-09-15T17:04:02.050Z,99142.41
2022-09-15T17:19:03.984Z,99171.41
2022-09-15T17:34:11.967Z,99179.38
2022-09-15T17:49:16.511Z,99193.13
2022-09-15T18:04:18.455Z,99174.66
2022-09-15T18:19:20.279Z,99182.41
2022-09-15T18:34:22.506Z,99183.91
2022-09-15T18:49:24.511Z,99183.16
2022-09-15T19:04:31.626Z,99186.41
2022-09-15T19:19:34.554Z,99178.16
2022-09-15T19:34:38.640Z,99160.41
2022-09-15T19:49:40.505Z,99148.41
2022-09-15T20:04:42.441Z,99149.66
2022-09-15T20:19:44.325Z,99143.41
2022-09-15T20:34:49.170Z,99129.66
2022-09-15T20:49:50.953Z,99137.16
2022-09-15T21:04:52.833Z,99129.91
2022-09-15T21:19:54.646Z,99132.16
2022-09-15T21:34:56.458Z,99123.91
2022-09-15T21:49:58.866Z,99116.66
2022-09-15T22:05:00.719Z,99101.16
2022-09-15T22:20:03.053Z,99084.44
2022-09-15T22:35:05.990Z,99072.38
2022-09-15T22:50:08.097Z,99090.84
2022-09-15T23:05:13.206Z,99092.06
2022-09-15T23:20:15.146Z,99087.84
2022-09-15T23:35:16.940Z,99082.31
2022-09-15T23:50:18.772Z,99090.03
